Eikamaru No.2 — JD3056 — position and weather

sailwx.info

Track history (hours):
 
Tides and Currents Weather Stations Pressure Air Temp Water Temp Dewpoint Dewpoint Depression Visibility Wind Speed Wind Dir Waves Ship Positions

Eikamaru No.2

Last reported at 2014-Dec-15 05:14 UTC. Time now 2014-Dec-18 09:33 UTC.
Position N 35°16' E 139°46'.

Length 60 m; draft 3.3 m.

Type: Tanker. MMSI: 431001342.

Date/timePositionNaut miles runAvg speedWind from/ knotsBaromVisibWave heightAir tempDewpointWater temp
2014-Dec-15 05:14N 35°16' E 139°46'811.4
2014-Dec-15 04:33N 35°23' E 139°42'1311.5
2014-Dec-15 03:23N 35°31' E 139°55'4 0.1
2014-Dec-13 22:30N 35°32' E 139°60'0 0.0
2014-Dec-13 17:23N 35°32' E 139°60'0 0.0
2014-Dec-13 16:32N 35°32' E 139°60'0 0.0
2014-Dec-13 15:23N 35°32' E 139°60'0 0.0
2014-Dec-13 14:33N 35°32' E 139°60'0 0.0
2014-Dec-13 13:33N 35°32' E 139°60'0 0.0
2014-Dec-13 12:29N 35°32' E 139°60'11 3.7
2014-Dec-13 09:33N 35°30' E 139°47'1 0.2
2014-Dec-13 04:33N 35°31' E 139°46'6 5.9
2014-Dec-13 03:27N 35°32' E 139°54'2 0.1
2014-Dec-12 15:24N 35°31' E 139°55'1012.1
2014-Dec-12 14:33N 35°24' E 139°46'1110.5
2014-Dec-12 13:33N 35°14' E 139°47'5 0.2
2014-Dec-11 10:34N 35°18' E 139°44'10 9.8
2014-Dec-11 09:33N 35°28' E 139°48'6 2.4
2014-Dec-11 07:14N 35°29' E 139°55'10 0.8
2014-Dec-10 18:20N 35°23' E 139°46'911.6
2014-Dec-10 17:33N 35°14' E 139°47'2 0.1
2014-Dec-09 05:13N 35°15' E 139°46'710.7
2014-Dec-09 04:33N 35°22' E 139°42'1111.0
2014-Dec-09 03:33N 35°30' E 139°52'2 0.2
2014-Dec-08 18:33N 35°28' E 139°51'1111.4
2014-Dec-08 17:33N 35°17' E 139°45'  
2014-Dec-06 13:33N 35°18' E 139°43'1010.0
2014-Dec-06 12:33N 35°28' E 139°48'5 4.1
2014-Dec-06 11:14N 35°29' E 139°55'0 0.0
2014-Dec-06 10:33N 35°29' E 139°55'0 0.0
2014-Dec-06 09:33N 35°29' E 139°55'0 0.0
2014-Dec-06 08:33N 35°29' E 139°55'0 0.0
2014-Dec-06 07:33N 35°29' E 139°55'0 0.0
2014-Dec-06 06:33N 35°29' E 139°55'0 0.0
2014-Dec-06 05:33N 35°29' E 139°55'0 0.0
2014-Dec-06 04:33N 35°29' E 139°55'7 1.3
2014-Dec-05 23:07N 35°34' E 140°01'  
Track history (hours):
 
Tides and Currents Weather Stations Pressure Air Temp Water Temp Dewpoint Dewpoint Depression Visibility Wind Speed Wind Dir Waves Ship Positions

Eikamaru No.2

Last reported at 2014-Dec-15 05:14 UTC. Time now 2014-Dec-18 09:33 UTC.
Position N 35°16' E 139°46'.

Length 60 m; draft 3.3 m.

Type: Tanker. MMSI: 431001342.

Date/timePositionNaut miles runAvg speedWind from/ knotsBaromVisibWave heightAir tempDewpointWater temp
2014-Dec-15 05:14N 35°16' E 139°46'811.4
2014-Dec-15 04:33N 35°23' E 139°42'1311.5
2014-Dec-15 03:23N 35°31' E 139°55'4 0.1
2014-Dec-13 22:30N 35°32' E 139°60'0 0.0
2014-Dec-13 17:23N 35°32' E 139°60'0 0.0
2014-Dec-13 16:32N 35°32' E 139°60'0 0.0
2014-Dec-13 15:23N 35°32' E 139°60'0 0.0
2014-Dec-13 14:33N 35°32' E 139°60'0 0.0
2014-Dec-13 13:33N 35°32' E 139°60'0 0.0
2014-Dec-13 12:29N 35°32' E 139°60'11 3.7
2014-Dec-13 09:33N 35°30' E 139°47'1 0.2
2014-Dec-13 04:33N 35°31' E 139°46'6 5.9
2014-Dec-13 03:27N 35°32' E 139°54'2 0.1
2014-Dec-12 15:24N 35°31' E 139°55'1012.1
2014-Dec-12 14:33N 35°24' E 139°46'1110.5
2014-Dec-12 13:33N 35°14' E 139°47'5 0.2
2014-Dec-11 10:34N 35°18' E 139°44'10 9.8
2014-Dec-11 09:33N 35°28' E 139°48'6 2.4
2014-Dec-11 07:14N 35°29' E 139°55'10 0.8
2014-Dec-10 18:20N 35°23' E 139°46'911.6
2014-Dec-10 17:33N 35°14' E 139°47'2 0.1
2014-Dec-09 05:13N 35°15' E 139°46'710.7
2014-Dec-09 04:33N 35°22' E 139°42'1111.0
2014-Dec-09 03:33N 35°30' E 139°52'2 0.2
2014-Dec-08 18:33N 35°28' E 139°51'1111.4
2014-Dec-08 17:33N 35°17' E 139°45'  
2014-Dec-06 13:33N 35°18' E 139°43'1010.0
2014-Dec-06 12:33N 35°28' E 139°48'5 4.1
2014-Dec-06 11:14N 35°29' E 139°55'0 0.0
2014-Dec-06 10:33N 35°29' E 139°55'0 0.0
2014-Dec-06 09:33N 35°29' E 139°55'0 0.0
2014-Dec-06 08:33N 35°29' E 139°55'0 0.0
2014-Dec-06 07:33N 35°29' E 139°55'0 0.0
2014-Dec-06 06:33N 35°29' E 139°55'0 0.0
2014-Dec-06 05:33N 35°29' E 139°55'0 0.0
2014-Dec-06 04:33N 35°29' E 139°55'7 1.3
2014-Dec-05 23:07N 35°34' E 140°01'  

Dump ship's entire track history